Time;durP1;ratioP1;P1;durP2;ratioP2;P2;SDS_P1;SDS_P2;PMS_P1;PMS_P2;Temp;Humidity;BMP_temperature;BMP_pressure;BME280_temperature;BME280_humidity;BME280_pressure;Samples;Min_cycle;Max_cycle;Signal;HPM_P1;HPM_P2
2022/04/03 00:00:13;;;;;;;6.15;3.53;;;1.90;99.90;;;;;;5000768;28;20504;-60
2022/04/03 00:02:39;;;;;;;5.75;3.20;;;1.80;99.90;;;;;;4996400;28;20057;-60
2022/04/03 00:05:05;;;;;;;8.65;3.38;;;1.80;99.90;;;;;;5000158;28;20049;-60
2022/04/03 00:07:32;;;;;;;5.47;3.58;;;1.80;99.90;;;;;;5000886;28;20034;-59
2022/04/03 00:09:58;;;;;;;5.78;3.33;;;1.80;99.90;;;;;;5003165;28;20109;-60
2022/04/03 00:12:24;;;;;;;5.22;3.17;;;1.70;99.90;;;;;;4999211;28;20023;-60
2022/04/03 00:14:49;;;;;;;6.40;3.75;;;1.60;99.90;;;;;;5003465;28;20112;-59
2022/04/03 00:17:15;;;;;;;5.88;3.30;;;1.70;99.90;;;;;;4999983;28;20421;-60
2022/04/03 00:19:42;;;;;;;8.55;3.35;;;1.90;99.90;;;;;;5004921;28;20105;-60
2022/04/03 00:22:07;;;;;;;6.35;3.10;;;1.80;99.90;;;;;;5002572;28;20513;-58
2022/04/03 00:24:33;;;;;;;5.25;3.00;;;1.80;99.90;;;;;;5000559;28;20065;-60
2022/04/03 00:26:58;;;;;;;5.82;3.38;;;2.00;99.90;;;;;;5000428;28;20034;-60
2022/04/03 00:29:27;;;;;;;8.52;3.20;;;2.10;99.90;;;;;;5002289;28;20056;-60
2022/04/03 00:31:52;;;;;;;6.40;3.17;;;2.10;99.90;;;;;;5003423;28;20049;-60
2022/04/03 00:34:18;;;;;;;6.50;3.03;;;2.00;99.90;;;;;;5005446;28;20022;-60
2022/04/03 00:36:43;;;;;;;5.28;3.10;;;2.10;99.90;;;;;;5003180;28;20030;-61
2022/04/03 00:39:09;;;;;;;6.45;3.58;;;2.00;99.90;;;;;;5001563;28;20397;-60
2022/04/03 00:41:36;;;;;;;8.07;3.42;;;1.90;99.90;;;;;;4999918;28;20030;-60
2022/04/03 00:44:02;;;;;;;5.63;2.90;;;1.80;99.90;;;;;;5002255;28;20057;-60
2022/04/03 00:46:29;;;;;;;8.60;2.88;;;1.80;99.90;;;;;;5002501;28;20137;-60
2022/04/03 00:48:57;;;;;;;7.55;3.50;;;1.70;99.90;;;;;;5002698;28;20021;-61
2022/04/03 00:51:23;;;;;;;5.95;2.80;;;1.70;99.90;;;;;;5004790;28;20010;-60
2022/04/03 00:53:49;;;;;;;6.88;2.95;;;1.80;99.90;;;;;;5004339;28;20088;-60
2022/04/03 00:56:15;;;;;;;6.95;3.05;;;1.70;99.90;;;;;;5001391;28;20045;-60
2022/04/03 00:58:41;;;;;;;5.75;3.20;;;1.70;99.90;;;;;;5004134;28;20056;-60
2022/04/03 01:01:07;;;;;;;5.95;3.15;;;1.70;99.90;;;;;;5003274;28;21523;-60
2022/04/03 01:03:32;;;;;;;5.20;3.05;;;1.60;99.90;;;;;;5004918;28;20105;-60
2022/04/03 01:05:58;;;;;;;4.85;2.92;;;1.50;99.90;;;;;;5003834;28;20109;-60
2022/04/03 01:08:24;;;;;;;6.80;2.97;;;1.60;99.90;;;;;;5007862;28;20050;-58
2022/04/03 01:10:50;;;;;;;6.03;2.90;;;1.50;99.90;;;;;;5004665;28;20025;-60
2022/04/03 01:13:16;;;;;;;6.18;2.95;;;1.50;99.90;;;;;;5008291;28;20334;-60
2022/04/03 01:15:42;;;;;;;5.00;3.05;;;1.50;99.90;;;;;;5004935;28;20519;-60
2022/04/03 01:18:08;;;;;;;4.45;2.80;;;1.50;99.90;;;;;;5006358;28;20069;-60
2022/04/03 01:20:35;;;;;;;5.82;3.05;;;1.40;99.90;;;;;;5005303;28;20068;-62
2022/04/03 01:23:01;;;;;;;6.20;2.75;;;1.30;99.90;;;;;;5005798;28;20084;-60
2022/04/03 01:25:26;;;;;;;5.60;3.10;;;1.50;99.90;;;;;;5004759;28;20465;-58
2022/04/03 01:27:52;;;;;;;6.57;2.70;;;1.50;99.90;;;;;;5003462;28;20026;-59
2022/04/03 01:30:18;;;;;;;5.30;2.88;;;1.50;99.90;;;;;;5006600;28;20068;-60
2022/04/03 01:32:43;;;;;;;5.72;3.05;;;1.40;99.90;;;;;;5004582;28;20980;-60
2022/04/03 01:35:09;;;;;;;5.82;2.55;;;1.40;99.90;;;;;;5007142;28;20038;-60
2022/04/03 01:37:35;;;;;;;5.78;2.70;;;1.30;99.90;;;;;;5005338;28;20042;-60
2022/04/03 01:40:02;;;;;;;6.00;3.08;;;1.30;99.90;;;;;;5005161;28;20076;-60
2022/04/03 01:42:28;;;;;;;4.13;2.60;;;1.40;99.90;;;;;;5005489;28;20527;-60
2022/04/03 01:44:54;;;;;;;5.40;2.67;;;1.30;99.90;;;;;;5004473;28;20101;-60
2022/04/03 01:47:20;;;;;;;5.43;3.25;;;1.20;99.90;;;;;;5006746;28;20050;-59
2022/04/03 01:49:45;;;;;;;5.25;2.65;;;1.10;99.90;;;;;;5005654;28;20362;-60
2022/04/03 01:52:11;;;;;;;6.20;3.22;;;1.00;99.90;;;;;;5004217;28;20423;-60
2022/04/03 01:54:36;;;;;;;5.28;2.92;;;1.00;99.90;;;;;;5005107;28;20044;-60
2022/04/03 01:57:02;;;;;;;6.00;3.22;;;0.90;99.90;;;;;;5003652;28;20444;-60
2022/04/03 01:59:28;;;;;;;7.20;3.42;;;1.00;99.90;;;;;;5004543;28;20547;-59
2022/04/03 02:01:53;;;;;;;6.72;2.80;;;1.00;99.90;;;;;;5006028;28;20026;-60
2022/04/03 02:04:19;;;;;;;7.78;3.50;;;0.90;99.90;;;;;;5003127;28;20025;-58
2022/04/03 02:06:45;;;;;;;7.93;3.28;;;0.90;99.90;;;;;;5001985;28;20026;-61
2022/04/03 02:09:11;;;;;;;5.72;2.78;;;0.80;99.90;;;;;;5006232;28;20033;-60
2022/04/03 02:11:36;;;;;;;5.78;2.65;;;0.80;99.90;;;;;;5002525;28;20437;-60
2022/04/03 02:14:03;;;;;;;11.18;3.13;;;1.00;99.90;;;;;;5005696;28;20307;-60
2022/04/03 02:16:28;;;;;;;8.07;2.95;;;1.00;99.90;;;;;;5005124;28;20033;-60
2022/04/03 02:18:54;;;;;;;6.55;2.85;;;0.90;99.90;;;;;;5005881;28;20033;-60
2022/04/03 02:21:19;;;;;;;10.02;2.70;;;0.80;99.90;;;;;;5006289;28;20032;-60
2022/04/03 02:23:45;;;;;;;4.28;2.70;;;0.70;99.90;;;;;;5004691;28;20030;-59
2022/04/03 02:26:10;;;;;;;8.18;2.90;;;0.70;99.90;;;;;;5003538;28;20511;-60
2022/04/03 02:28:39;;;;;;;4.90;2.85;;;0.70;99.90;;;;;;5004051;28;20018;-61
2022/04/03 02:31:04;;;;;;;3.85;2.85;;;0.70;99.90;;;;;;5002245;28;20112;-60
2022/04/03 02:33:30;;;;;;;6.75;2.67;;;1.00;99.90;;;;;;5004815;28;20677;-60
2022/04/03 02:35:55;;;;;;;4.22;2.75;;;1.10;99.90;;;;;;5005454;28;20084;-60
2022/04/03 02:38:21;;;;;;;5.78;2.80;;;1.10;99.90;;;;;;5002240;28;20385;-60
2022/04/03 02:40:47;;;;;;;5.47;2.78;;;1.20;99.90;;;;;;5002455;28;20033;-60
2022/04/03 02:43:13;;;;;;;6.75;3.03;;;1.30;99.90;;;;;;5004309;28;20106;-60
2022/04/03 02:45:39;;;;;;;4.40;2.63;;;1.20;99.90;;;;;;5004643;28;20034;-60
2022/04/03 02:48:04;;;;;;;4.40;2.95;;;1.20;99.90;;;;;;5000263;28;20030;-61
2022/04/03 02:50:30;;;;;;;5.57;2.80;;;1.10;99.90;;;;;;4984673;28;20056;-61
2022/04/03 02:52:56;;;;;;;8.43;2.90;;;0.90;99.90;;;;;;5003980;28;20101;-61
2022/04/03 02:55:24;;;;;;;8.32;2.85;;;0.90;99.90;;;;;;5002491;28;20433;-60
2022/04/03 02:57:50;;;;;;;5.32;3.08;;;1.00;99.90;;;;;;5001733;28;20670;-60
2022/04/03 03:00:17;;;;;;;5.45;2.85;;;0.90;99.90;;;;;;5002967;28;20025;-60
2022/04/03 03:02:47;;;;;;;6.63;2.90;;;1.00;99.90;;;;;;5003471;28;20394;-60
2022/04/03 03:05:14;;;;;;;5.18;2.67;;;1.10;99.90;;;;;;5004032;28;20040;-60
2022/04/03 03:07:42;;;;;;;5.03;2.70;;;1.00;99.90;;;;;;5005262;28;20519;-61
2022/04/03 03:10:09;;;;;;;5.72;2.80;;;1.00;99.90;;;;;;5005022;28;20120;-60
2022/04/03 03:12:35;;;;;;;4.93;3.05;;;1.00;99.90;;;;;;4999318;28;20037;-60
2022/04/03 03:15:03;;;;;;;6.20;3.08;;;1.00;99.90;;;;;;5000082;28;20022;-60
2022/04/03 03:17:29;;;;;;;7.85;2.97;;;0.90;99.90;;;;;;5002901;28;20033;-59
2022/04/03 03:19:55;;;;;;;5.10;2.83;;;0.90;99.90;;;;;;4986729;28;20030;-60
2022/04/03 03:22:21;;;;;;;6.28;3.03;;;0.80;99.90;;;;;;5003138;28;20026;-60
2022/04/03 03:24:47;;;;;;;6.13;3.03;;;0.80;99.90;;;;;;5002574;28;20033;-60
2022/04/03 03:27:12;;;;;;;6.75;2.80;;;0.70;99.90;;;;;;5000058;28;20022;-60
2022/04/03 03:29:38;;;;;;;4.30;2.97;;;0.60;99.90;;;;;;5005080;28;20087;-60
2022/04/03 03:32:04;;;;;;;5.20;2.70;;;0.70;99.90;;;;;;5004075;28;20040;-60
2022/04/03 03:34:30;;;;;;;5.03;2.90;;;0.60;99.90;;;;;;5002948;28;20552;-60
2022/04/03 03:36:56;;;;;;;5.90;2.78;;;0.60;99.90;;;;;;4984537;28;20113;-60
2022/04/03 03:39:21;;;;;;;6.75;3.15;;;0.60;99.90;;;;;;5001177;28;20026;-60
2022/04/03 03:41:47;;;;;;;5.38;2.97;;;0.50;99.90;;;;;;5000199;28;20022;-58
2022/04/03 03:44:12;;;;;;;5.13;3.10;;;0.60;99.90;;;;;;4983769;28;20129;-60
2022/04/03 03:46:41;;;;;;;5.50;2.90;;;0.60;99.90;;;;;;5001119;28;20037;-60
2022/04/03 03:49:08;;;;;;;6.00;3.20;;;0.50;99.90;;;;;;5000800;28;20169;-60
2022/04/03 03:51:35;;;;;;;3.95;2.90;;;0.60;99.90;;;;;;4996906;28;20093;-61
2022/04/03 03:54:02;;;;;;;10.15;3.10;;;0.50;99.90;;;;;;5002561;28;20038;-60
2022/04/03 03:56:27;;;;;;;3.90;2.55;;;0.50;99.90;;;;;;4999394;28;20441;-61
2022/04/03 03:58:53;;;;;;;6.05;2.80;;;0.50;99.90;;;;;;4999675;28;20107;-61
2022/04/03 04:01:20;;;;;;;5.65;3.60;;;0.40;99.90;;;;;;5001508;28;20029;-61
2022/04/03 04:03:46;;;;;;;6.18;3.33;;;0.40;99.90;;;;;;5001877;28;20042;-61
2022/04/03 04:06:11;;;;;;;5.18;3.03;;;0.30;99.90;;;;;;4999069;28;20026;-61
2022/04/03 04:08:37;;;;;;;4.18;2.78;;;0.30;99.90;;;;;;5000904;28;20025;-61
2022/04/03 04:11:03;;;;;;;7.28;2.90;;;0.40;99.90;;;;;;4981501;28;20022;-62
2022/04/03 04:13:28;;;;;;;6.15;3.10;;;0.40;99.90;;;;;;5005237;28;20041;-60
2022/04/03 04:15:54;;;;;;;5.90;3.03;;;0.40;99.90;;;;;;5002996;28;20041;-61
2022/04/03 04:18:20;;;;;;;5.03;3.00;;;0.40;99.90;;;;;;5001871;28;20441;-61
2022/04/03 04:20:46;;;;;;;5.20;3.10;;;0.20;99.90;;;;;;5002761;28;20564;-61
2022/04/03 04:23:11;;;;;;;4.82;3.00;;;0.10;99.90;;;;;;4996899;28;20073;-61
2022/04/03 04:25:37;;;;;;;6.93;3.47;;;0.30;99.90;;;;;;5003591;28;20044;-62
2022/04/03 04:28:03;;;;;;;5.60;3.10;;;0.10;99.90;;;;;;5000538;28;20034;-61
2022/04/03 04:30:28;;;;;;;6.70;3.28;;;0.10;99.90;;;;;;5001218;28;20041;-62
2022/04/03 04:32:54;;;;;;;6.97;2.90;;;-0.10;99.90;;;;;;4999394;28;20541;-61
2022/04/03 04:35:20;;;;;;;4.38;3.00;;;0.10;99.90;;;;;;4997043;28;20524;-61
2022/04/03 04:37:45;;;;;;;9.32;3.20;;;0.30;99.90;;;;;;5000249;28;20021;-61
2022/04/03 04:40:12;;;;;;;6.53;2.90;;;0.20;99.90;;;;;;5006309;28;20145;-61
2022/04/03 04:42:39;;;;;;;4.38;2.83;;;0.30;99.90;;;;;;4982031;28;20481;-61
2022/04/03 04:45:07;;;;;;;5.35;3.00;;;0.20;99.90;;;;;;5000855;28;20054;-61
2022/04/03 04:47:36;;;;;;;6.53;3.80;;;0.30;99.90;;;;;;5001826;28;20030;-62
2022/04/03 04:50:05;;;;;;;7.50;3.22;;;0.00;99.90;;;;;;5001944;28;20018;-62
2022/04/03 04:52:30;;;;;;;5.63;2.90;;;0.10;99.90;;;;;;5001811;28;20036;-61
2022/04/03 04:54:56;;;;;;;9.63;3.00;;;0.10;99.90;;;;;;5004442;28;20093;-62
2022/04/03 04:57:21;;;;;;;7.65;3.13;;;0.10;99.90;;;;;;5003467;28;20026;-60
2022/04/03 04:59:47;;;;;;;4.82;2.90;;;-0.10;99.90;;;;;;5001472;28;20026;-60
2022/04/03 05:02:13;;;;;;;4.13;2.67;;;-0.20;99.90;;;;;;5006532;28;20010;-61
2022/04/03 05:04:38;;;;;;;6.43;3.08;;;-0.30;99.90;;;;;;5000706;28;20029;-61
2022/04/03 05:07:04;;;;;;;7.32;3.40;;;-0.40;99.90;;;;;;4986422;28;20117;-62
2022/04/03 05:09:31;;;;;;;4.63;3.10;;;-0.40;99.90;;;;;;4986176;28;20114;-61
2022/04/03 05:11:57;;;;;;;4.72;3.20;;;-0.10;99.90;;;;;;4986072;28;20010;-62
2022/04/03 05:14:23;;;;;;;8.35;3.47;;;-0.10;99.90;;;;;;5003230;28;20036;-61
2022/04/03 05:16:49;;;;;;;4.50;3.50;;;-0.20;99.90;;;;;;5000243;28;20409;-61
2022/04/03 05:19:15;;;;;;;6.78;3.45;;;-0.10;99.90;;;;;;5007499;28;20018;-61
2022/04/03 05:21:42;;;;;;;7.18;3.15;;;-0.10;99.90;;;;;;5005625;28;20026;-61
2022/04/03 05:24:07;;;;;;;6.97;3.30;;;-0.10;99.90;;;;;;5004383;28;20061;-61
2022/04/03 05:26:33;;;;;;;5.10;2.88;;;-0.10;99.90;;;;;;5001294;28;20072;-61
2022/04/03 05:28:59;;;;;;;6.78;3.60;;;-0.10;99.90;;;;;;5006808;28;20026;-61
2022/04/03 05:31:27;;;;;;;4.82;2.95;;;-0.10;99.90;;;;;;5006218;28;20103;-61
2022/04/03 05:33:56;;;;;;;5.38;3.40;;;0.10;99.90;;;;;;5000574;28;20186;-61
2022/04/03 05:36:22;;;;;;;5.45;3.10;;;0.00;99.90;;;;;;5004355;28;20053;-61
2022/04/03 05:38:48;;;;;;;6.15;3.10;;;0.10;99.90;;;;;;4984811;28;20022;-61
2022/04/03 05:41:14;;;;;;;6.75;3.90;;;0.10;99.90;;;;;;5005774;28;20052;-61
2022/04/03 05:43:39;;;;;;;5.75;3.25;;;0.00;99.90;;;;;;5003871;28;20454;-61
2022/04/03 05:46:05;;;;;;;6.50;3.22;;;0.10;99.90;;;;;;5003102;28;20044;-61
2022/04/03 05:48:30;;;;;;;5.32;2.97;;;0.20;99.90;;;;;;5005276;28;20454;-61
2022/04/03 05:50:56;;;;;;;6.63;3.03;;;0.10;99.90;;;;;;5005072;28;20469;-61
2022/04/03 05:53:22;;;;;;;6.55;2.97;;;0.20;99.90;;;;;;5006200;28;20057;-61
2022/04/03 05:55:47;;;;;;;5.18;3.03;;;0.30;99.90;;;;;;5002689;28;20025;-61
2022/04/03 05:58:13;;;;;;;7.75;3.20;;;0.50;99.90;;;;;;5004083;28;20057;-62
2022/04/03 06:00:39;;;;;;;6.68;3.00;;;0.40;99.90;;;;;;5005124;28;20030;-61
2022/04/03 06:03:04;;;;;;;4.80;2.65;;;0.50;99.90;;;;;;4992272;28;21351;-62
2022/04/03 06:05:35;;;;;;;7.00;3.22;;;0.50;99.90;;;;;;5006393;28;20053;-60
2022/04/03 06:08:05;;;;;;;3.88;2.67;;;0.40;99.90;;;;;;5003414;28;20044;-61
2022/04/03 06:10:31;;;;;;;7.70;3.20;;;0.60;99.90;;;;;;5005552;28;20034;-62
2022/04/03 06:13:02;;;;;;;7.43;3.40;;;0.60;99.90;;;;;;5005281;28;20018;-61
2022/04/03 06:15:34;;;;;;;4.70;3.03;;;0.70;99.90;;;;;;5002263;28;20053;-61
2022/04/03 06:18:01;;;;;;;5.22;2.63;;;0.70;99.90;;;;;;5004400;28;20054;-61
2022/04/03 06:20:27;;;;;;;4.63;2.88;;;1.00;99.90;;;;;;5003554;28;20079;-61
2022/04/03 06:22:53;;;;;;;5.72;3.05;;;1.00;99.90;;;;;;5005132;28;20106;-61
2022/04/03 06:25:20;;;;;;;4.72;3.00;;;1.10;99.90;;;;;;5002432;28;20095;-61
2022/04/03 06:27:46;;;;;;;4.38;2.80;;;1.10;99.90;;;;;;5004078;28;20655;-61
2022/04/03 06:30:12;;;;;;;6.28;3.00;;;1.20;99.90;;;;;;5000993;28;20030;-61
2022/04/03 06:32:38;;;;;;;6.25;2.60;;;1.20;99.90;;;;;;4970218;28;20468;-61
2022/04/03 06:35:04;;;;;;;6.72;2.80;;;1.20;99.90;;;;;;5003797;28;20056;-61
2022/04/03 06:37:30;;;;;;;4.10;2.85;;;1.20;99.90;;;;;;5002175;28;20359;-60
2022/04/03 06:39:56;;;;;;;4.55;2.67;;;1.40;99.90;;;;;;5004324;28;20033;-61
2022/04/03 06:42:21;;;;;;;6.53;3.05;;;1.50;99.90;;;;;;5002107;28;20064;-60
2022/04/03 06:44:47;;;;;;;7.82;2.75;;;1.40;99.90;;;;;;5003791;28;20144;-61
2022/04/03 06:47:13;;;;;;;7.03;2.50;;;1.30;99.90;;;;;;5003002;28;20026;-61
2022/04/03 06:49:40;;;;;;;6.18;2.50;;;1.50;99.90;;;;;;5004573;28;20022;-61
2022/04/03 06:52:08;;;;;;;5.95;3.00;;;1.50;99.90;;;;;;4998996;28;20422;-61
2022/04/03 06:54:34;;;;;;;6.45;2.85;;;1.70;99.90;;;;;;5004983;28;20076;-60
2022/04/03 06:57:00;;;;;;;2.80;2.10;;;1.60;99.90;;;;;;5003191;28;20037;-61
2022/04/03 06:59:26;;;;;;;4.95;2.80;;;1.70;99.90;;;;;;5001916;28;20474;-61
2022/04/03 07:01:51;;;;;;;4.95;2.50;;;1.80;99.90;;;;;;4999552;28;20993;-61
2022/04/03 07:04:17;;;;;;;4.18;2.45;;;1.80;99.90;;;;;;5002212;28;20037;-61
2022/04/03 07:06:42;;;;;;;6.07;2.80;;;1.80;99.90;;;;;;5003034;28;20539;-60
2022/04/03 07:09:08;;;;;;;4.47;2.67;;;1.90;99.90;;;;;;5002411;28;20018;-60
2022/04/03 07:11:33;;;;;;;3.28;2.45;;;1.90;99.90;;;;;;5004983;28;20037;-60
2022/04/03 07:13:59;;;;;;;4.53;2.53;;;2.00;99.90;;;;;;5002938;28;20036;-60
2022/04/03 07:16:24;;;;;;;5.43;2.67;;;2.10;99.90;;;;;;5002653;28;20042;-60
2022/04/03 07:18:50;;;;;;;5.10;2.70;;;2.20;99.90;;;;;;5002016;28;20092;-60
2022/04/03 07:21:16;;;;;;;3.35;2.22;;;2.30;99.90;;;;;;5001686;28;20433;-60
2022/04/03 07:23:42;;;;;;;6.00;2.28;;;2.30;99.90;;;;;;5002013;28;20029;-61
2022/04/03 07:26:08;;;;;;;4.57;2.20;;;2.40;99.90;;;;;;4997628;28;20034;-61
2022/04/03 07:28:33;;;;;;;4.25;2.38;;;2.50;99.90;;;;;;5005046;28;20017;-61
2022/04/03 07:30:59;;;;;;;4.60;2.60;;;2.50;99.90;;;;;;5004195;28;20030;-61
2022/04/03 07:33:25;;;;;;;7.13;2.67;;;2.70;99.90;;;;;;5004637;28;20038;-61
2022/04/03 07:35:51;;;;;;;4.47;2.15;;;2.80;99.90;;;;;;5001321;28;20034;-61
2022/04/03 07:38:18;;;;;;;5.63;2.50;;;2.80;99.90;;;;;;5003996;28;20112;-61
2022/04/03 07:40:45;;;;;;;4.22;2.35;;;2.90;99.90;;;;;;5002527;28;20092;-61
2022/04/03 07:43:12;;;;;;;4.07;2.40;;;3.00;99.90;;;;;;5003460;28;20038;-61
2022/04/03 07:45:37;;;;;;;4.57;2.20;;;3.10;99.90;;;;;;5002509;28;20115;-60
2022/04/03 07:48:03;;;;;;;6.03;2.08;;;3.00;99.90;;;;;;4998129;28;20448;-60
2022/04/03 07:50:29;;;;;;;5.07;2.22;;;3.10;99.90;;;;;;5000554;28;20057;-60
2022/04/03 07:52:55;;;;;;;5.18;3.25;;;3.10;99.90;;;;;;5000196;28;20473;-59
2022/04/03 07:55:20;;;;;;;4.30;2.40;;;3.40;99.90;;;;;;5002392;28;20031;-59
2022/04/03 07:57:46;;;;;;;3.47;1.83;;;3.60;99.90;;;;;;5000340;28;20552;-61
2022/04/03 08:00:13;;;;;;;3.53;2.83;;;3.60;99.90;;;;;;5000058;28;20037;-61
2022/04/03 08:02:40;;;;;;;3.55;1.90;;;3.60;99.90;;;;;;5001876;28;20145;-61
2022/04/03 08:05:06;;;;;;;5.35;2.38;;;3.80;99.90;;;;;;5000746;28;20378;-60
2022/04/03 08:07:40;;;;;;;3.45;2.00;;;3.80;99.90;;;;;;5000588;28;20018;-60
2022/04/03 08:10:08;;;;;;;3.05;1.85;;;3.80;99.90;;;;;;4999710;28;20102;-60
2022/04/03 08:12:38;;;;;;;4.95;2.10;;;3.80;99.90;;;;;;5004254;28;20022;-60
2022/04/03 08:15:04;;;;;;;5.13;2.35;;;3.90;99.90;;;;;;5006898;28;20101;-60
2022/04/03 08:17:31;;;;;;;4.10;1.90;;;4.10;99.90;;;;;;5006523;28;20381;-61
2022/04/03 08:19:57;;;;;;;4.28;2.03;;;4.30;99.90;;;;;;5003711;28;20653;-61
2022/04/03 08:22:23;;;;;;;3.97;1.88;;;4.20;99.90;;;;;;5004316;28;20022;-62
2022/04/03 08:24:50;;;;;;;4.20;2.00;;;4.30;99.90;;;;;;5004233;28;20026;-58
2022/04/03 08:27:17;;;;;;;3.30;1.88;;;4.40;99.90;;;;;;5004035;28;20084;-61
2022/04/03 08:29:43;;;;;;;6.40;1.77;;;4.50;99.90;;;;;;5006127;28;20430;-60
2022/04/03 08:32:09;;;;;;;3.85;1.83;;;4.60;99.90;;;;;;5004132;28;20030;-59
2022/04/03 08:34:34;;;;;;;3.88;1.90;;;4.80;99.90;;;;;;5006874;28;20072;-61
2022/04/03 08:37:00;;;;;;;3.25;1.90;;;4.80;99.90;;;;;;5004765;28;20497;-60
2022/04/03 08:39:26;;;;;;;3.70;2.05;;;4.70;99.90;;;;;;5002788;28;20062;-62
2022/04/03 08:41:52;;;;;;;4.55;2.17;;;5.00;99.90;;;;;;5004760;28;20040;-60
2022/04/03 08:44:19;;;;;;;3.67;2.25;;;5.20;99.90;;;;;;5007460;28;20552;-61
2022/04/03 08:46:48;;;;;;;7.32;2.47;;;5.30;99.90;;;;;;4985902;28;20018;-61
2022/04/03 08:49:15;;;;;;;3.45;1.75;;;5.10;99.90;;;;;;5005580;28;20404;-60
2022/04/03 08:51:42;;;;;;;4.82;2.15;;;5.00;99.90;;;;;;5000014;28;20045;-60
2022/04/03 08:54:09;;;;;;;5.22;2.33;;;5.30;99.90;;;;;;5000737;28;20096;-60
2022/04/03 08:56:35;;;;;;;3.08;1.83;;;5.30;99.90;;;;;;5000602;28;20026;-61
2022/04/03 08:59:00;;;;;;;3.95;2.13;;;5.20;99.90;;;;;;4999067;28;20080;-61
2022/04/03 09:01:26;;;;;;;6.53;2.22;;;5.00;99.90;;;;;;5000724;28;20030;-61
2022/04/03 09:03:51;;;;;;;4.35;2.15;;;5.00;99.90;;;;;;5001927;28;20022;-60
2022/04/03 09:06:19;;;;;;;5.65;2.50;;;5.20;99.90;;;;;;5005357;28;20105;-61
2022/04/03 09:08:46;;;;;;;3.97;2.38;;;5.20;99.90;;;;;;5001952;28;20014;-60
2022/04/03 09:11:12;;;;;;;3.47;1.85;;;5.20;99.90;;;;;;4988894;28;20033;-60
2022/04/03 09:13:39;;;;;;;5.18;1.95;;;5.20;99.90;;;;;;5006084;28;20517;-61
2022/04/03 09:16:06;;;;;;;4.05;2.17;;;5.20;99.90;;;;;;5003454;28;20029;-60
2022/04/03 09:18:47;;;;;;;3.00;1.90;;;5.20;99.90;;;;;;5006830;28;20032;-59
2022/04/03 09:21:22;;;;;;;2.50;1.80;;;5.10;99.90;;;;;;5007042;28;20030;-60
2022/04/03 09:24:10;;;;;;;8.13;1.85;;;4.90;99.90;;;;;;5001657;28;20500;-60
2022/04/03 09:26:37;;;;;;;2.42;1.60;;;5.10;99.90;;;;;;5005615;28;20501;-60
2022/04/03 09:29:10;;;;;;;3.22;1.95;;;5.00;99.90;;;;;;5007055;28;20054;-60
2022/04/03 09:31:35;;;;;;;3.20;1.67;;;5.00;99.90;;;;;;5000843;28;20036;-59
2022/04/03 09:34:02;;;;;;;5.32;1.65;;;5.00;99.90;;;;;;5004033;28;20034;-60
2022/04/03 09:36:33;;;;;;;6.40;1.58;;;4.90;99.90;;;;;;5003395;28;20682;-59
2022/04/03 09:39:10;;;;;;;5.32;1.60;;;4.80;99.90;;;;;;4999660;28;20033;-60
2022/04/03 09:41:59;;;;;;;2.60;1.40;;;4.80;99.90;;;;;;5005485;28;20084;-60
2022/04/03 09:44:38;;;;;;;4.28;1.70;;;4.90;99.90;;;;;;5003284;28;20030;-59
2022/04/03 09:47:33;;;;;;;3.55;1.40;;;5.20;99.90;;;;;;5003704;28;20096;-60
2022/04/03 09:50:01;;;;;;;4.07;1.80;;;5.20;99.90;;;;;;5001576;28;20034;-60
2022/04/03 09:52:42;;;;;;;1.88;1.58;;;5.40;99.90;;;;;;5003480;28;20428;-60
2022/04/03 09:55:14;;;;;;;4.75;1.50;;;5.40;99.90;;;;;;5000702;28;20494;-61
2022/04/03 09:57:40;;;;;;;6.97;1.40;;;5.20;99.90;;;;;;5003361;28;20109;-60
2022/04/03 10:00:07;;;;;;;2.38;1.20;;;5.30;99.90;;;;;;5003104;28;20026;-61
2022/04/03 10:02:33;;;;;;;2.63;1.80;;;5.30;99.90;;;;;;5004198;28;20045;-60
2022/04/03 10:04:59;;;;;;;4.07;1.33;;;5.20;99.90;;;;;;5005163;28;20026;-61
2022/04/03 10:07:25;;;;;;;4.95;1.40;;;5.30;99.90;;;;;;5004154;28;20054;-61
2022/04/03 10:09:52;;;;;;;5.07;1.85;;;5.40;99.90;;;;;;5004315;28;20489;-61
2022/04/03 10:12:22;;;;;;;3.67;1.67;;;5.70;99.90;;;;;;5005488;28;20395;-60
2022/04/03 10:14:50;;;;;;;2.13;1.20;;;5.80;99.90;;;;;;5002154;28;20073;-59
2022/04/03 10:17:17;;;;;;;3.70;1.52;;;5.60;99.90;;;;;;5003213;28;20036;-61
2022/04/03 10:19:43;;;;;;;3.92;1.60;;;5.60;99.90;;;;;;5003213;28;20165;-60
2022/04/03 10:22:26;;;;;;;6.45;1.67;;;5.80;99.90;;;;;;4987750;28;20029;-60
2022/04/03 10:24:56;;;;;;;1.92;0.90;;;5.80;99.90;;;;;;5001064;28;20033;-60
2022/04/03 10:27:32;;;;;;;2.97;0.90;;;5.80;99.90;;;;;;4998271;28;20877;-59
2022/04/03 10:29:59;;;;;;;2.47;1.30;;;5.80;99.90;;;;;;5001363;28;20026;-61
2022/04/03 10:32:33;;;;;;;2.03;1.30;;;6.00;99.90;;;;;;4998141;28;20453;-60
2022/04/03 10:35:20;;;;;;;3.15;1.50;;;6.00;99.90;;;;;;4981911;28;20033;-61
2022/04/03 10:37:46;;;;;;;4.18;1.67;;;6.10;99.90;;;;;;5001157;28;20068;-58
2022/04/03 10:40:16;;;;;;;4.28;1.73;;;6.30;99.90;;;;;;5001406;28;20025;-60
2022/04/03 10:42:58;;;;;;;3.05;1.50;;;6.30;99.90;;;;;;5001838;28;20128;-61
2022/04/03 10:45:32;;;;;;;4.35;1.60;;;6.30;99.90;;;;;;5002929;28;20054;-61
2022/04/03 10:48:19;;;;;;;4.65;1.75;;;6.30;99.90;;;;;;5000318;28;20551;-60
2022/04/03 10:51:07;;;;;;;4.13;1.92;;;6.30;99.90;;;;;;5002214;28;20026;-60
2022/04/03 10:53:41;;;;;;;4.90;1.70;;;6.60;99.90;;;;;;4998733;28;20380;-60
2022/04/03 10:56:28;;;;;;;3.25;2.05;;;6.60;99.90;;;;;;4999745;28;20531;-61
2022/04/03 10:58:55;;;;;;;7.15;2.00;;;6.70;99.90;;;;;;4996696;28;20029;-61
2022/04/03 11:01:29;;;;;;;3.47;1.50;;;6.80;99.90;;;;;;5003570;28;20026;-61
2022/04/03 11:03:58;;;;;;;4.30;1.60;;;7.00;99.90;;;;;;4983710;28;20060;-60
2022/04/03 11:06:30;;;;;;;4.22;1.90;;;7.30;99.90;;;;;;4998685;28;20076;-61
2022/04/03 11:09:04;;;;;;;2.83;1.42;;;7.30;99.90;;;;;;5002152;28;20018;-60
2022/04/03 11:11:33;;;;;;;3.75;1.55;;;7.20;99.90;;;;;;5003146;28;20068;-60
2022/04/03 11:13:59;;;;;;;3.92;1.40;;;7.20;99.90;;;;;;4999256;28;20037;-61
2022/04/03 11:16:26;;;;;;;2.80;1.20;;;7.60;99.90;;;;;;4984395;28;20034;-60
2022/04/03 11:18:52;;;;;;;3.80;1.40;;;7.60;99.90;;;;;;4986692;28;20141;-61
2022/04/03 11:21:25;;;;;;;4.10;1.45;;;7.80;99.90;;;;;;5000376;28;20121;-59
2022/04/03 11:24:11;;;;;;;2.85;1.23;;;8.00;99.90;;;;;;5000410;28;20649;-61
2022/04/03 11:26:38;;;;;;;2.72;1.40;;;8.10;99.90;;;;;;5000383;28;20042;-61
2022/04/03 11:29:06;;;;;;;3.67;1.40;;;8.00;99.90;;;;;;4999389;28;20049;-60
2022/04/03 11:31:32;;;;;;;5.25;1.30;;;8.20;99.90;;;;;;4994797;28;20280;-59
2022/04/03 11:33:59;;;;;;;2.72;1.23;;;8.10;99.90;;;;;;5000947;28;20049;-61
2022/04/03 11:36:26;;;;;;;3.85;1.50;;;8.20;99.90;;;;;;5001286;28;20382;-61
2022/04/03 11:38:53;;;;;;;3.92;1.50;;;8.10;99.90;;;;;;5000898;28;20096;-61
2022/04/03 11:41:27;;;;;;;2.80;1.30;;;8.20;99.90;;;;;;5000860;28;20050;-60
2022/04/03 11:44:06;;;;;;;3.70;1.20;;;8.00;99.90;;;;;;5003578;28;20025;-60
2022/04/03 11:46:51;;;;;;;2.10;1.42;;;7.90;99.90;;;;;;4999783;28;20044;-60
2022/04/03 11:49:21;;;;;;;2.35;1.42;;;7.90;99.90;;;;;;5000909;28;20022;-61
2022/04/03 11:51:53;;;;;;;4.65;1.30;;;7.80;99.90;;;;;;5002058;28;20029;-60
2022/04/03 11:54:19;;;;;;;4.72;1.42;;;7.80;99.90;;;;;;5001179;28;20489;-61
2022/04/03 11:56:44;;;;;;;2.97;1.15;;;8.00;99.90;;;;;;4999937;28;20060;-61
2022/04/03 11:59:10;;;;;;;5.18;1.40;;;7.80;99.90;;;;;;4981054;28;20041;-61
2022/04/03 12:01:40;;;;;;;3.30;1.25;;;8.10;99.90;;;;;;4999207;28;20060;-60
2022/04/03 12:04:08;;;;;;;2.47;1.13;;;8.20;99.90;;;;;;5000576;28;20033;-60
2022/04/03 12:06:39;;;;;;;1.73;1.27;;;8.00;99.90;;;;;;5002176;28;20053;-60
2022/04/03 12:09:12;;;;;;;3.17;1.20;;;7.70;99.90;;;;;;5001022;28;20064;-60
2022/04/03 12:12:04;;;;;;;3.83;1.38;;;7.90;99.90;;;;;;5000218;28;20065;-60
2022/04/03 12:14:31;;;;;;;2.20;1.45;;;7.50;99.90;;;;;;5003123;28;20088;-60
2022/04/03 12:17:06;;;;;;;2.75;1.30;;;7.60;99.90;;;;;;4998891;28;20074;-60
2022/04/03 12:19:39;;;;;;;6.40;1.73;;;7.50;99.90;;;;;;5002041;28;20474;-60
2022/04/03 12:22:08;;;;;;;7.38;2.42;;;7.60;99.90;;;;;;4998303;28;20026;-61
2022/04/03 12:24:35;;;;;;;4.25;2.60;;;7.70;99.90;;;;;;4998386;28;20394;-61
2022/04/03 12:27:16;;;;;;;4.65;2.10;;;7.60;99.90;;;;;;4980676;28;20076;-61
2022/04/03 12:29:49;;;;;;;3.92;3.08;;;7.60;99.90;;;;;;5000491;28;20112;-61
2022/04/03 12:32:28;;;;;;;3.80;2.50;;;7.50;99.90;;;;;;5000160;28;20022;-61
2022/04/03 12:34:55;;;;;;;3.88;1.58;;;7.40;99.90;;;;;;4999918;28;20100;-61
2022/04/03 12:37:21;;;;;;;3.17;1.20;;;7.30;99.90;;;;;;5000223;28;20057;-61
2022/04/03 12:39:49;;;;;;;1.65;1.25;;;6.80;99.90;;;;;;4998225;28;20132;-61
2022/04/03 12:42:24;;;;;;;4.05;1.45;;;6.70;99.90;;;;;;5001663;28;20045;-61
2022/04/03 12:44:50;;;;;;;2.00;1.50;;;6.50;99.90;;;;;;5002382;28;20029;-62
2022/04/03 12:47:29;;;;;;;4.10;1.42;;;6.50;99.90;;;;;;4998599;28;20018;-60
2022/04/03 12:50:07;;;;;;;6.38;3.05;;;6.40;99.90;;;;;;4983385;28;20018;-59
2022/04/03 12:52:45;;;;;;;4.75;2.50;;;6.40;99.90;;;;;;5003441;28;20495;-61
2022/04/03 12:55:29;;;;;;;3.38;2.00;;;6.50;99.90;;;;;;5000405;28;20025;-60
2022/04/03 13:01:11;;;;;;;3.70;1.98;;;7.00;99.90;;;;;;5005882;28;20524;-61